Terminal Aerodrome Forecast
Issued by NWS

Current Version | Previous Version | Text Only | Print | Product List | Glossary On
Versions: 1 2 3 4 5 6 7 8 9 10 11 12 13 14
000
FTUS42 TJSJ 221140
TAFIST
TAF
TIST 221140Z 2212/2312 01006KT P6SM VCSH SCT025 BKN080
     FM221400 03008KT P6SM FEW030 SCT070
     FM221730 06010KT P6SM SCT025
     FM222300 VRB05KT P6SM VCSH SCT025 SCT070=

USA.gov is the U.S. government's official web portal to all federal, state and local government web resources and services.